createdAt,value
2022-12-11T00:00:40.529Z,95.52
2022-12-11T00:03:14.172Z,95.69
2022-12-11T00:05:44.378Z,95.45
2022-12-11T00:08:14.680Z,95.38
2022-12-11T00:10:48.857Z,95.27
2022-12-11T00:13:16.518Z,95.58
2022-12-11T00:15:44.159Z,95.47
2022-12-11T00:18:13.831Z,95.29
2022-12-11T00:20:41.789Z,95.57
2022-12-11T00:23:10.594Z,95.44
2022-12-11T00:25:45.010Z,95.84
2022-12-11T00:28:13.849Z,95.67
2022-12-11T00:30:42.464Z,95.56
2022-12-11T00:33:10.696Z,95.60
2022-12-11T00:35:39.315Z,96.16
2022-12-11T00:38:07.057Z,96.25
2022-12-11T00:40:35.204Z,96.30
2022-12-11T00:43:04.874Z,96.33
2022-12-11T00:45:32.524Z,96.13
2022-12-11T00:48:00.159Z,96.22
2022-12-11T00:50:27.989Z,96.49
2022-12-11T00:52:55.621Z,96.27
2022-12-11T00:55:23.359Z,95.96
2022-12-11T00:57:52.678Z,96.16
2022-12-11T01:00:22.610Z,96.59
2022-12-11T01:02:50.655Z,96.98
2022-12-11T01:05:18.585Z,96.92
2022-12-11T01:07:46.287Z,96.78
2022-12-11T01:10:26.659Z,96.87
2022-12-11T01:12:58.177Z,96.94
2022-12-11T01:15:29.387Z,97.29
2022-12-11T01:17:57.653Z,97.03
2022-12-11T01:20:27.109Z,96.88
2022-12-11T01:22:56.173Z,97.00
2022-12-11T01:25:24.589Z,97.18
2022-12-11T01:27:52.755Z,97.46
2022-12-11T01:30:22.767Z,97.73
2022-12-11T01:32:51.889Z,97.97
2022-12-11T01:35:20.679Z,97.85
2022-12-11T01:37:48.391Z,97.90
2022-12-11T01:40:18.187Z,98.16
2022-12-11T01:42:45.945Z,98.44
2022-12-11T01:45:27.225Z,98.71
2022-12-11T01:48:02.195Z,99.04
2022-12-11T01:50:31.795Z,99.18
2022-12-11T01:53:00.041Z,99.71
2022-12-11T01:55:27.894Z,100.00
2022-12-11T01:57:55.676Z,100.00
2022-12-11T02:00:23.327Z,100.00
2022-12-11T02:02:51.029Z,100.00
2022-12-11T02:05:20.259Z,100.00
2022-12-11T02:07:51.471Z,100.00
2022-12-11T02:10:19.429Z,100.00
2022-12-11T02:12:58.582Z,100.00
2022-12-11T02:15:35.684Z,100.00
2022-12-11T02:18:14.321Z,100.00
2022-12-11T02:20:49.607Z,100.00
2022-12-11T02:23:48.412Z,100.00
2022-12-11T02:26:31.365Z,100.00
2022-12-11T02:29:03.137Z,100.00
2022-12-11T02:31:36.434Z,100.00
2022-12-11T02:34:09.923Z,100.00
2022-12-11T02:36:42.369Z,100.00
2022-12-11T02:39:14.335Z,100.00
2022-12-11T02:41:45.404Z,100.00
2022-12-11T02:44:17.578Z,100.00
2022-12-11T02:46:46.155Z,100.00
2022-12-11T02:49:15.338Z,100.00
2022-12-11T02:51:44.429Z,100.00
2022-12-11T02:54:16.091Z,99.63
2022-12-11T02:56:49.014Z,99.59
2022-12-11T02:59:23.358Z,99.60
2022-12-11T03:01:51.543Z,99.56
2022-12-11T03:04:19.444Z,99.35
2022-12-11T03:06:52.671Z,99.25
2022-12-11T03:09:21.071Z,99.01
2022-12-11T03:11:48.872Z,98.42
2022-12-11T03:14:17.952Z,98.33
2022-12-11T03:16:56.158Z,97.99
2022-12-11T03:19:32.937Z,97.76
2022-12-11T03:22:09.844Z,97.24
2022-12-11T03:24:42.381Z,97.04
2022-12-11T03:27:17.633Z,96.84
2022-12-11T03:29:55.100Z,96.80
2022-12-11T03:32:27.607Z,96.66
2022-12-11T03:34:59.550Z,96.63
2022-12-11T03:37:32.165Z,96.69
2022-12-11T03:40:04.528Z,96.79
2022-12-11T03:42:33.006Z,97.02
2022-12-11T03:45:03.536Z,97.32
2022-12-11T03:47:33.413Z,97.35
2022-12-11T03:50:03.210Z,96.77
2022-12-11T03:52:32.439Z,96.96
2022-12-11T03:55:03.780Z,97.07
2022-12-11T03:57:35.763Z,96.60
2022-12-11T04:00:05.868Z,96.46
2022-12-11T04:02:33.502Z,96.60
2022-12-11T04:05:01.122Z,96.74
2022-12-11T04:07:28.947Z,96.83
2022-12-11T04:09:56.572Z,97.26
2022-12-11T04:12:24.233Z,97.01
2022-12-11T04:15:02.754Z,97.05
2022-12-11T04:17:50.264Z,96.77
2022-12-11T04:20:36.078Z,96.44
2022-12-11T04:23:22.905Z,96.54
2022-12-11T04:25:50.929Z,96.63
2022-12-11T04:28:18.575Z,96.66
2022-12-11T04:30:50.028Z,96.07
2022-12-11T04:33:19.164Z,96.42
2022-12-11T04:35:46.833Z,96.58
2022-12-11T04:38:14.440Z,96.66
2022-12-11T04:40:42.221Z,96.65
2022-12-11T04:43:10.008Z,96.54
2022-12-11T04:45:37.678Z,96.44
2022-12-11T04:48:05.846Z,96.31
2022-12-11T04:50:34.920Z,96.42
2022-12-11T04:53:02.522Z,96.07
2022-12-11T04:55:30.211Z,95.57
2022-12-11T04:57:57.855Z,95.73
2022-12-11T05:00:25.451Z,95.45
2022-12-11T05:02:53.240Z,95.80
2022-12-11T05:05:20.878Z,96.13
2022-12-11T05:07:49.868Z,95.97
2022-12-11T05:10:17.678Z,95.84
2022-12-11T05:12:45.316Z,95.69
2022-12-11T05:15:13.299Z,95.48
2022-12-11T05:17:41.222Z,95.03
2022-12-11T05:20:10.496Z,95.10
2022-12-11T05:22:38.146Z,95.37
2022-12-11T05:25:08.783Z,95.03
2022-12-11T05:27:36.714Z,94.70
2022-12-11T05:30:05.234Z,94.68
2022-12-11T05:32:32.897Z,94.86
2022-12-11T05:35:00.571Z,95.26
2022-12-11T05:37:28.411Z,95.39
2022-12-11T05:39:56.034Z,95.48
2022-12-11T05:42:28.812Z,95.47
2022-12-11T05:44:56.834Z,95.02
2022-12-11T05:47:25.507Z,94.86
2022-12-11T05:49:53.310Z,94.89
2022-12-11T05:52:21.654Z,94.69
2022-12-11T05:54:50.295Z,95.03
2022-12-11T05:57:18.001Z,95.00
2022-12-11T05:59:47.221Z,95.15
2022-12-11T06:02:14.962Z,95.13
2022-12-11T06:04:42.752Z,94.74
2022-12-11T06:07:10.443Z,94.58
2022-12-11T06:09:38.071Z,94.83
2022-12-11T06:12:05.984Z,94.41
2022-12-11T06:14:33.657Z,94.44
2022-12-11T06:17:02.682Z,93.64
2022-12-11T06:19:36.427Z,93.42
2022-12-11T06:22:04.600Z,93.74
2022-12-11T06:24:32.304Z,94.07
2022-12-11T06:26:59.931Z,94.24
2022-12-11T06:29:27.577Z,94.56
2022-12-11T06:31:55.253Z,94.79
2022-12-11T06:34:24.509Z,94.91
2022-12-11T06:36:52.109Z,94.62
2022-12-11T06:39:20.243Z,93.58
2022-12-11T06:41:48.271Z,93.69
2022-12-11T06:44:15.929Z,94.19
2022-12-11T06:46:43.605Z,94.29
2022-12-11T06:49:11.224Z,94.15
2022-12-11T06:51:40.717Z,94.50
2022-12-11T06:54:08.361Z,94.36
2022-12-11T06:56:36.407Z,93.77
2022-12-11T06:59:07.295Z,93.97
2022-12-11T07:01:35.320Z,94.33
2022-12-11T07:04:02.986Z,94.31
2022-12-11T07:06:31.128Z,94.28
2022-12-11T07:09:00.160Z,94.32
2022-12-11T07:11:27.839Z,94.12
2022-12-11T07:13:55.501Z,94.25
2022-12-11T07:16:23.175Z,94.17
2022-12-11T07:18:52.287Z,94.15
2022-12-11T07:21:21.256Z,94.07
2022-12-11T07:23:49.436Z,93.59
2022-12-11T07:26:20.405Z,94.09
2022-12-11T07:28:48.873Z,94.29
2022-12-11T07:31:19.939Z,93.31
2022-12-11T07:33:48.266Z,93.31
2022-12-11T07:36:21.728Z,92.75
2022-12-11T07:38:49.381Z,92.95
2022-12-11T07:41:18.986Z,93.00
2022-12-11T07:43:46.826Z,92.35
2022-12-11T07:46:16.984Z,92.15
2022-12-11T07:48:46.009Z,92.61
2022-12-11T07:51:16.025Z,92.59
2022-12-11T07:53:44.429Z,92.90
2022-12-11T07:56:12.212Z,93.15
2022-12-11T07:58:41.224Z,93.21
2022-12-11T08:01:12.328Z,92.88
2022-12-11T08:03:40.243Z,92.41
2022-12-11T08:06:08.325Z,92.72
2022-12-11T08:08:36.328Z,92.64
2022-12-11T08:11:04.672Z,92.66
2022-12-11T08:13:32.478Z,92.83
2022-12-11T08:16:04.761Z,93.38
2022-12-11T08:18:32.443Z,93.50
2022-12-11T08:21:00.083Z,93.81
2022-12-11T08:23:27.688Z,93.70
2022-12-11T08:25:55.292Z,93.69
2022-12-11T08:28:22.924Z,92.89
2022-12-11T08:30:50.527Z,93.31
2022-12-11T08:33:19.915Z,93.42
2022-12-11T08:35:47.608Z,93.52
2022-12-11T08:38:15.367Z,93.51
2022-12-11T08:40:43.235Z,93.60
2022-12-11T08:43:10.864Z,93.16
2022-12-11T08:45:39.311Z,93.39
2022-12-11T08:48:07.596Z,93.33
2022-12-11T08:50:38.422Z,93.59
2022-12-11T08:53:06.063Z,93.25
2022-12-11T08:55:33.917Z,93.04
2022-12-11T08:58:01.569Z,93.45
2022-12-11T09:00:29.237Z,93.77
2022-12-11T09:02:56.970Z,93.69
2022-12-11T09:05:24.731Z,93.74
2022-12-11T09:07:53.771Z,93.79
2022-12-11T09:10:21.732Z,93.79
2022-12-11T09:12:49.455Z,93.52
2022-12-11T09:15:17.318Z,93.51
2022-12-11T09:17:44.983Z,94.05
2022-12-11T09:20:13.053Z,94.38
2022-12-11T09:22:42.727Z,94.06
2022-12-11T09:25:11.987Z,94.18
2022-12-11T09:27:39.785Z,94.07
2022-12-11T09:30:09.326Z,93.83
2022-12-11T09:32:37.077Z,94.33
2022-12-11T09:35:05.032Z,94.70
2022-12-11T09:37:34.253Z,94.98
2022-12-11T09:40:07.337Z,95.12
2022-12-11T09:42:49.831Z,95.04
2022-12-11T09:45:17.914Z,95.10
2022-12-11T09:47:50.074Z,95.15
2022-12-11T09:50:22.873Z,95.37
2022-12-11T09:53:00.875Z,95.46
2022-12-11T09:55:37.550Z,95.42
2022-12-11T09:58:18.008Z,95.26
2022-12-11T10:00:48.917Z,95.46
2022-12-11T10:03:32.794Z,95.59
2022-12-11T10:06:08.397Z,95.34
2022-12-11T10:08:42.279Z,95.51
2022-12-11T10:11:27.617Z,95.33
2022-12-11T10:14:03.719Z,94.81
2022-12-11T10:16:37.968Z,94.08
2022-12-11T10:19:05.990Z,94.26
2022-12-11T10:21:39.918Z,94.11
2022-12-11T10:24:33.748Z,94.84
2022-12-11T10:27:15.997Z,94.36
2022-12-11T10:29:45.032Z,94.39
2022-12-11T10:32:22.546Z,94.76
2022-12-11T10:34:53.546Z,94.86
2022-12-11T10:37:21.203Z,95.10
2022-12-11T10:39:48.876Z,95.39
2022-12-11T10:42:20.962Z,95.41
2022-12-11T10:45:01.819Z,95.13
2022-12-11T10:47:30.116Z,94.75
2022-12-11T10:50:00.054Z,94.84
2022-12-11T10:52:31.628Z,94.65
2022-12-11T10:55:03.348Z,94.45
2022-12-11T10:57:32.992Z,94.51
2022-12-11T11:00:04.471Z,94.75
2022-12-11T11:02:36.860Z,94.51
2022-12-11T11:05:14.217Z,94.47
2022-12-11T11:07:42.221Z,93.78
2022-12-11T11:10:17.031Z,93.46
2022-12-11T11:12:46.913Z,93.28
2022-12-11T11:15:19.196Z,93.15
2022-12-11T11:17:55.089Z,93.19
2022-12-11T11:20:25.595Z,93.36
2022-12-11T11:22:56.072Z,93.27
2022-12-11T11:25:25.971Z,93.28
2022-12-11T11:27:56.168Z,93.04
2022-12-11T11:30:28.584Z,92.48
2022-12-11T11:33:00.714Z,92.21
2022-12-11T11:35:30.203Z,92.61
2022-12-11T11:38:06.532Z,92.18
2022-12-11T11:40:40.253Z,92.89
2022-12-11T11:43:17.331Z,92.83
2022-12-11T11:45:54.934Z,93.39
2022-12-11T11:48:39.629Z,93.65
2022-12-11T11:51:16.279Z,93.30
2022-12-11T11:53:49.108Z,92.86
2022-12-11T11:56:22.413Z,92.66
2022-12-11T11:59:08.427Z,92.73
2022-12-11T12:01:37.675Z,92.25
2022-12-11T12:04:06.227Z,92.04
2022-12-11T12:06:50.557Z,92.07
2022-12-11T12:09:35.274Z,91.85
2022-12-11T12:12:13.395Z,92.30
2022-12-11T12:15:00.127Z,92.78
2022-12-11T12:17:38.431Z,92.19
2022-12-11T12:20:20.370Z,92.62
2022-12-11T12:22:58.360Z,93.02
2022-12-11T12:25:29.709Z,93.07
2022-12-11T12:28:06.753Z,92.68
2022-12-11T12:30:46.418Z,92.40
2022-12-11T12:33:32.085Z,91.05
2022-12-11T12:36:12.347Z,91.20
2022-12-11T12:38:46.774Z,90.84
2022-12-11T12:41:21.879Z,90.90
2022-12-11T12:44:08.096Z,91.36
2022-12-11T12:46:50.137Z,91.16
2022-12-11T12:49:29.402Z,90.91
2022-12-11T12:51:58.141Z,91.21
2022-12-11T12:54:29.688Z,91.52
2022-12-11T12:56:58.728Z,90.41
2022-12-11T12:59:28.739Z,89.82
2022-12-11T13:01:58.879Z,90.23
2022-12-11T13:04:55.707Z,91.25
2022-12-11T13:07:29.776Z,91.12
2022-12-11T13:10:04.636Z,91.10
2022-12-11T13:12:36.047Z,91.29
2022-12-11T13:15:03.705Z,91.31
2022-12-11T13:17:39.655Z,90.27
2022-12-11T13:20:19.574Z,90.09
2022-12-11T13:22:57.429Z,88.68
2022-12-11T13:25:28.657Z,88.43
2022-12-11T13:28:06.978Z,88.91
2022-12-11T13:30:35.352Z,89.18
2022-12-11T13:33:05.727Z,90.05
2022-12-11T13:35:36.334Z,90.05
2022-12-11T13:38:09.301Z,89.41
2022-12-11T13:40:43.731Z,90.02
2022-12-11T13:43:19.217Z,89.38
2022-12-11T13:45:50.441Z,89.41
2022-12-11T13:48:24.778Z,89.48
2022-12-11T13:50:55.157Z,89.15
2022-12-11T13:53:23.577Z,89.14
2022-12-11T13:55:58.536Z,89.49
2022-12-11T13:58:26.943Z,89.60
2022-12-11T14:01:07.649Z,88.92
2022-12-11T14:03:36.522Z,89.25
2022-12-11T14:06:06.059Z,88.80
2022-12-11T14:08:37.170Z,88.42
2022-12-11T14:11:06.222Z,88.65
2022-12-11T14:13:37.142Z,88.71
2022-12-11T14:16:05.496Z,88.82
2022-12-11T14:18:36.153Z,89.19
2022-12-11T14:21:07.136Z,89.51
2022-12-11T14:23:36.970Z,89.54
2022-12-11T14:26:16.251Z,89.96
2022-12-11T14:28:44.537Z,89.48
2022-12-11T14:31:17.063Z,89.30
2022-12-11T14:33:48.304Z,88.46
2022-12-11T14:36:18.520Z,88.12
2022-12-11T14:38:50.182Z,87.92
2022-12-11T14:41:22.597Z,88.41
2022-12-11T14:43:53.372Z,89.08
2022-12-11T14:46:27.246Z,88.31
2022-12-11T14:49:01.467Z,87.78
2022-12-11T14:51:35.107Z,88.36
2022-12-11T14:54:04.046Z,88.76
2022-12-11T14:56:32.377Z,89.18
2022-12-11T14:59:03.615Z,89.06
2022-12-11T15:01:32.645Z,87.48
2022-12-11T15:04:05.351Z,86.55
2022-12-11T15:06:36.571Z,84.43
2022-12-11T15:09:17.540Z,85.34
2022-12-11T15:11:45.801Z,85.97
2022-12-11T15:14:14.910Z,86.69
2022-12-11T15:16:43.575Z,86.93
2022-12-11T15:19:23.123Z,88.11
2022-12-11T15:21:52.752Z,88.41
2022-12-11T15:24:27.163Z,88.62
2022-12-11T15:26:59.249Z,88.53
2022-12-11T15:29:33.695Z,88.33
2022-12-11T15:32:04.177Z,89.29
2022-12-11T15:34:36.360Z,87.26
2022-12-11T15:37:05.411Z,88.30
2022-12-11T15:39:33.033Z,88.44
2022-12-11T15:42:02.132Z,89.08
2022-12-11T15:44:29.793Z,88.26
2022-12-11T15:46:57.467Z,85.92
2022-12-11T15:49:25.160Z,84.42
2022-12-11T15:51:54.431Z,85.20
2022-12-11T15:54:23.513Z,86.19
2022-12-11T15:56:51.152Z,87.37
2022-12-11T15:59:19.952Z,87.94
2022-12-11T16:01:47.622Z,87.83
2022-12-11T16:04:15.352Z,87.77
2022-12-11T16:06:46.247Z,85.72
2022-12-11T16:09:13.965Z,85.55
2022-12-11T16:11:43.095Z,84.90
2022-12-11T16:14:10.732Z,85.92
2022-12-11T16:16:38.615Z,86.61
2022-12-11T16:19:06.310Z,86.63
2022-12-11T16:21:33.935Z,86.50
2022-12-11T16:24:01.682Z,87.36
2022-12-11T16:26:29.334Z,87.83
2022-12-11T16:28:58.305Z,88.06
2022-12-11T16:31:25.975Z,88.46
2022-12-11T16:33:53.701Z,88.96
2022-12-11T16:36:21.532Z,89.11
2022-12-11T16:38:53.840Z,89.10
2022-12-11T16:41:23.011Z,89.47
2022-12-11T16:43:50.838Z,89.44
2022-12-11T16:46:20.599Z,89.63
2022-12-11T16:48:48.629Z,87.66
2022-12-11T16:51:16.516Z,88.95
2022-12-11T16:53:44.316Z,89.86
2022-12-11T16:56:11.913Z,89.32
2022-12-11T16:58:40.511Z,89.01
2022-12-11T17:01:12.105Z,89.78
2022-12-11T17:03:42.304Z,89.70
2022-12-11T17:06:11.910Z,89.73
2022-12-11T17:08:41.164Z,89.90
2022-12-11T17:11:10.695Z,90.04
2022-12-11T17:13:38.495Z,89.96
2022-12-11T17:16:07.300Z,90.18
2022-12-11T17:18:35.306Z,90.40
2022-12-11T17:21:08.206Z,90.32
2022-12-11T17:23:36.331Z,90.02
2022-12-11T17:26:05.463Z,89.63
2022-12-11T17:28:33.628Z,88.48
2022-12-11T17:31:01.278Z,89.18
2022-12-11T17:33:28.996Z,88.61
2022-12-11T17:35:57.207Z,89.15
2022-12-11T17:38:26.412Z,89.47
2022-12-11T17:40:54.346Z,90.06
2022-12-11T17:43:22.370Z,89.69
2022-12-11T17:45:52.408Z,89.54
2022-12-11T17:48:22.474Z,89.74
2022-12-11T17:50:52.756Z,89.47
2022-12-11T17:53:22.133Z,89.73
2022-12-11T17:55:51.899Z,88.92
2022-12-11T17:58:21.833Z,88.69
2022-12-11T18:00:52.024Z,88.39
2022-12-11T18:03:20.104Z,88.54
2022-12-11T18:05:51.223Z,89.08
2022-12-11T18:08:22.306Z,89.75
2022-12-11T18:10:51.504Z,89.73
2022-12-11T18:13:19.472Z,89.69
2022-12-11T18:15:47.262Z,90.08
2022-12-11T18:18:15.898Z,90.12
2022-12-11T18:20:43.521Z,90.28
2022-12-11T18:23:11.211Z,90.40
2022-12-11T18:25:38.898Z,91.06
2022-12-11T18:28:08.113Z,90.50
2022-12-11T18:30:35.886Z,89.95
2022-12-11T18:33:03.550Z,90.29
2022-12-11T18:35:31.921Z,90.46
2022-12-11T18:37:59.721Z,90.36
2022-12-11T18:40:28.706Z,90.45
2022-12-11T18:42:56.843Z,90.46
2022-12-11T18:45:25.852Z,90.80
2022-12-11T18:47:55.617Z,90.93
2022-12-11T18:50:23.322Z,91.12
2022-12-11T18:52:54.123Z,90.77
2022-12-11T18:55:22.171Z,90.88
2022-12-11T18:57:50.016Z,90.74
2022-12-11T19:00:18.335Z,91.00
2022-12-11T19:02:47.408Z,90.70
2022-12-11T19:05:15.389Z,90.93
2022-12-11T19:07:43.102Z,90.79
2022-12-11T19:10:11.398Z,90.76
2022-12-11T19:12:39.046Z,90.28
2022-12-11T19:15:07.748Z,90.79
2022-12-11T19:17:35.453Z,91.27
2022-12-11T19:20:19.082Z,91.16
2022-12-11T19:22:52.930Z,91.31
2022-12-11T19:25:20.865Z,91.27
2022-12-11T19:27:50.075Z,91.20
2022-12-11T19:30:17.758Z,91.43
2022-12-11T19:32:45.486Z,91.43
2022-12-11T19:35:16.778Z,90.61
2022-12-11T19:37:44.929Z,90.74
2022-12-11T19:40:14.367Z,90.94
2022-12-11T19:42:42.398Z,90.93
2022-12-11T19:45:11.312Z,90.89
2022-12-11T19:47:39.207Z,90.98
2022-12-11T19:50:07.880Z,90.91
2022-12-11T19:52:41.483Z,91.23
2022-12-11T19:55:13.477Z,91.02
2022-12-11T19:57:41.289Z,90.60
2022-12-11T20:00:09.813Z,90.58
2022-12-11T20:02:37.431Z,90.24
2022-12-11T20:05:05.569Z,90.11
2022-12-11T20:07:33.250Z,90.48
2022-12-11T20:10:02.305Z,90.82
2022-12-11T20:12:30.283Z,90.84
2022-12-11T20:14:57.970Z,90.69
2022-12-11T20:17:25.768Z,90.45
2022-12-11T20:19:53.541Z,90.67
2022-12-11T20:22:21.185Z,90.71
2022-12-11T20:24:48.895Z,91.05
2022-12-11T20:27:17.871Z,90.74
2022-12-11T20:29:45.531Z,90.99
2022-12-11T20:32:13.294Z,91.15
2022-12-11T20:34:41.250Z,91.44
2022-12-11T20:37:09.033Z,91.65
2022-12-11T20:39:37.301Z,91.74
2022-12-11T20:42:05.691Z,91.55
2022-12-11T20:44:34.728Z,91.53
2022-12-11T20:47:02.373Z,91.42
2022-12-11T20:49:30.036Z,91.63
2022-12-11T20:51:57.657Z,91.73
2022-12-11T20:54:25.345Z,91.83
2022-12-11T20:56:53.143Z,91.74
2022-12-11T20:59:20.821Z,91.51
2022-12-11T21:01:50.293Z,91.34
2022-12-11T21:04:17.969Z,91.94
2022-12-11T21:06:45.608Z,91.54
2022-12-11T21:09:17.562Z,91.64
2022-12-11T21:11:45.314Z,91.36
2022-12-11T21:14:12.999Z,91.20
2022-12-11T21:16:40.770Z,91.26
2022-12-11T21:19:13.725Z,91.06
2022-12-11T21:21:45.502Z,91.45
2022-12-11T21:24:16.876Z,91.35
2022-12-11T21:26:44.659Z,91.36
2022-12-11T21:29:12.344Z,91.25
2022-12-11T21:31:40.504Z,91.41
2022-12-11T21:34:09.562Z,91.21
2022-12-11T21:36:37.293Z,91.44
2022-12-11T21:39:05.837Z,91.46
2022-12-11T21:41:33.997Z,91.57
2022-12-11T21:46:49.393Z,91.38
2022-12-11T21:49:18.528Z,90.98
2022-12-11T21:51:47.640Z,90.92
2022-12-11T21:54:18.377Z,91.33
2022-12-11T21:56:46.600Z,91.62
2022-12-11T21:59:14.592Z,91.84
2022-12-11T22:01:45.845Z,91.91
2022-12-11T22:04:15.340Z,92.20
2022-12-11T22:06:46.842Z,92.49
2022-12-11T22:09:14.970Z,92.54
2022-12-11T22:11:43.561Z,92.73
2022-12-11T22:14:12.826Z,92.75
2022-12-11T22:16:40.536Z,92.62
2022-12-11T22:19:08.403Z,92.90
2022-12-11T22:21:36.438Z,92.54
2022-12-11T22:24:05.640Z,92.13
2022-12-11T22:26:33.382Z,92.23
2022-12-11T22:29:01.021Z,91.59
2022-12-11T22:31:28.854Z,91.45
2022-12-11T22:33:56.844Z,92.10
2022-12-11T22:36:26.203Z,92.01
2022-12-11T22:38:54.296Z,91.76
2022-12-11T22:41:25.866Z,91.83
2022-12-11T22:43:54.371Z,91.78
2022-12-11T22:46:24.422Z,92.06
2022-12-11T22:48:52.750Z,92.19
2022-12-11T22:51:20.900Z,92.24
2022-12-11T22:53:49.052Z,92.35
2022-12-11T22:56:16.962Z,92.58
2022-12-11T22:58:46.015Z,92.70
2022-12-11T23:01:16.044Z,92.73
2022-12-11T23:03:43.879Z,92.74
2022-12-11T23:06:14.155Z,92.72
2022-12-11T23:08:42.786Z,92.47
2022-12-11T23:11:12.636Z,92.45
2022-12-11T23:13:40.547Z,92.35
2022-12-11T23:16:10.045Z,92.49
2022-12-11T23:18:38.357Z,92.74
2022-12-11T23:21:07.183Z,92.66
2022-12-11T23:23:35.113Z,92.71
2022-12-11T23:26:03.410Z,92.71
2022-12-11T23:28:31.090Z,92.68
2022-12-11T23:30:59.291Z,92.88
2022-12-11T23:33:28.420Z,92.96
2022-12-11T23:35:56.199Z,93.10
2022-12-11T23:38:23.851Z,92.86
2022-12-11T23:40:51.858Z,93.20
2022-12-11T23:43:19.504Z,93.38
2022-12-11T23:45:47.559Z,93.27
2022-12-11T23:48:15.515Z,93.31
2022-12-11T23:50:45.142Z,93.00
2022-12-11T23:53:12.900Z,92.90
